Time,TemperatureF,DewpointF,PressureIn,WindDirection,WindDirectionDegrees,WindSpeedMPH,WindSpeedGustMPH,Humidity,HourlyPrecipIn,Conditions,Clouds,dailyrainin,SoftwareType,DateUTC
2013-08-08 00:00:00,56.4,54.4,30.05,South,170,0.0,0.0,93,0.00,,,0.00,Wunderground v.1.15,2013-08-08 07:00:00,
2013-08-08 00:05:00,56.4,54.4,30.05,South,170,0.0,0.0,93,0.00,,,0.00,Wunderground v.1.15,2013-08-08 07:05:00,
2013-08-08 00:10:00,56.4,54.4,30.05,South,171,0.0,0.0,93,0.00,,,0.00,Wunderground v.1.15,2013-08-08 07:10:00,
2013-08-08 00:20:00,56.3,54.3,30.05,South,171,0.0,0.0,93,0.00,,,0.00,Wunderground v.1.15,2013-08-08 07:20:00,
2013-08-08 00:25:00,56.2,54.2,30.05,South,171,0.0,0.0,93,0.00,,,0.00,Wunderground v.1.15,2013-08-08 07:25:00,
2013-08-08 00:30:00,56.1,53.8,30.05,South,171,0.0,0.0,92,0.00,,,0.00,Wunderground v.1.15,2013-08-08 07:30:00,
2013-08-08 00:35:00,56.0,53.7,30.05,South,171,0.0,0.0,92,0.00,,,0.00,Wunderground v.1.15,2013-08-08 07:35:00,
2013-08-08 00:40:00,55.9,53.9,30.05,South,171,0.0,0.0,93,0.00,,,0.00,Wunderground v.1.15,2013-08-08 07:40:00,
2013-08-08 00:45:00,55.8,53.8,30.05,South,171,0.0,0.0,93,0.00,,,0.00,Wunderground v.1.15,2013-08-08 07:45:00,
2013-08-08 00:55:00,55.6,53.6,30.05,South,171,0.0,0.0,93,0.00,,,0.00,Wunderground v.1.15,2013-08-08 07:55:00,
2013-08-08 01:00:00,55.6,53.6,30.05,South,171,0.0,0.0,93,0.00,,,0.00,Wunderground v.1.15,2013-08-08 08:00:00,
2013-08-08 01:10:00,55.5,53.8,30.04,South,171,0.0,0.0,94,0.00,,,0.00,Wunderground v.1.15,2013-08-08 08:10:00,
2013-08-08 01:15:00,55.6,53.9,30.04,South,171,0.0,0.0,94,0.00,,,0.00,Wunderground v.1.15,2013-08-08 08:15:00,
2013-08-08 01:20:00,55.6,53.9,30.04,South,171,0.0,0.0,94,0.00,,,0.00,Wunderground v.1.15,2013-08-08 08:20:00,
2013-08-08 01:25:00,55.6,53.9,30.04,South,171,0.0,0.0,94,0.00,,,0.00,Wunderground v.1.15,2013-08-08 08:25:00,
2013-08-08 01:30:00,55.6,53.9,30.04,South,171,0.0,0.0,94,0.00,,,0.00,Wunderground v.1.15,2013-08-08 08:30:00,
2013-08-08 01:35:00,55.6,53.9,30.04,South,171,0.0,0.0,94,0.00,,,0.00,Wunderground v.1.15,2013-08-08 08:35:00,
2013-08-08 01:45:00,55.5,53.8,30.04,South,171,0.0,0.0,94,0.00,,,0.00,Wunderground v.1.15,2013-08-08 08:45:00,
2013-08-08 01:50:00,55.4,53.7,30.03,South,171,0.0,0.0,94,0.00,,,0.00,Wunderground v.1.15,2013-08-08 08:50:00,
2013-08-08 01:55:00,55.4,53.7,30.03,South,171,0.0,0.0,94,0.00,,,0.00,Wunderground v.1.15,2013-08-08 08:55:00,
2013-08-08 02:00:00,55.4,53.7,30.03,South,171,0.0,0.0,94,0.00,,,0.00,Wunderground v.1.15,2013-08-08 09:00:00,
2013-08-08 02:10:00,55.4,53.7,30.03,South,171,0.0,0.0,94,0.00,,,0.00,Wunderground v.1.15,2013-08-08 09:10:00,
2013-08-08 02:15:00,55.4,53.7,30.03,South,171,0.0,0.0,94,0.00,,,0.00,Wunderground v.1.15,2013-08-08 09:15:00,
2013-08-08 02:20:00,55.5,53.8,30.03,WNW,287,0.0,0.0,94,0.00,,,0.00,Wunderground v.1.15,2013-08-08 09:20:00,
2013-08-08 02:25:00,55.6,53.9,30.03,WNW,287,0.0,0.0,94,0.00,,,0.00,Wunderground v.1.15,2013-08-08 09:25:00,
2013-08-08 02:35:00,55.7,54.0,30.03,WNW,287,0.0,0.0,94,0.00,,,0.00,Wunderground v.1.15,2013-08-08 09:35:00,
2013-08-08 02:40:00,55.6,53.9,30.03,WNW,287,0.0,0.0,94,0.00,,,0.00,Wunderground v.1.15,2013-08-08 09:40:00,
2013-08-08 02:45:00,55.7,54.0,30.02,WNW,287,0.0,0.0,94,0.00,,,0.00,Wunderground v.1.15,2013-08-08 09:45:00,
2013-08-08 02:55:00,55.6,53.9,30.03,WNW,287,0.0,0.0,94,0.00,,,0.00,Wunderground v.1.15,2013-08-08 09:55:00,
2013-08-08 03:00:00,55.6,53.9,30.02,WNW,287,0.0,0.0,94,0.00,,,0.00,Wunderground v.1.15,2013-08-08 10:00:00,
2013-08-08 03:05:00,55.7,54.0,30.03,WNW,287,0.0,0.0,94,0.00,,,0.00,Wunderground v.1.15,2013-08-08 10:05:00,
2013-08-08 03:10:00,55.7,54.0,30.02,WNW,287,0.0,0.0,94,0.00,,,0.00,Wunderground v.1.15,2013-08-08 10:10:00,
2013-08-08 03:20:00,55.7,54.0,30.02,WNW,287,0.0,0.0,94,0.00,,,0.00,Wunderground v.1.15,2013-08-08 10:20:00,
2013-08-08 03:25:00,55.8,54.1,30.02,WNW,287,0.0,0.0,94,0.00,,,0.00,Wunderground v.1.15,2013-08-08 10:25:00,
2013-08-08 03:30:00,55.8,54.1,30.02,WNW,287,0.0,0.0,94,0.00,,,0.00,Wunderground v.1.15,2013-08-08 10:30:00,
2013-08-08 03:35:00,55.8,54.1,30.02,WNW,287,0.0,0.0,94,0.00,,,0.00,Wunderground v.1.15,2013-08-08 10:35:00,
2013-08-08 03:40:00,55.8,54.1,30.02,WNW,287,0.0,0.0,94,0.00,,,0.00,Wunderground v.1.15,2013-08-08 10:40:00,
2013-08-08 03:45:00,55.9,54.2,30.02,WNW,287,0.0,0.0,94,0.00,,,0.00,Wunderground v.1.15,2013-08-08 10:45:00,
2013-08-08 03:50:00,55.9,54.2,30.01,WNW,287,0.0,0.0,94,0.00,,,0.00,Wunderground v.1.15,2013-08-08 10:50:00,
2013-08-08 03:55:00,55.9,54.2,30.02,WNW,287,0.0,0.0,94,0.00,,,0.00,Wunderground v.1.15,2013-08-08 10:55:00,
2013-08-08 04:05:00,56.0,54.6,30.01,WNW,287,0.0,0.0,95,0.00,,,0.00,Wunderground v.1.15,2013-08-08 11:05:00,
2013-08-08 04:10:00,56.0,54.6,30.01,WNW,287,0.0,0.0,95,0.00,,,0.00,Wunderground v.1.15,2013-08-08 11:10:00,
2013-08-08 04:15:00,56.1,54.7,30.01,WNW,287,0.0,0.0,95,0.00,,,0.00,Wunderground v.1.15,2013-08-08 11:15:00,
2013-08-08 04:25:00,56.0,54.6,30.01,WNW,292,0.0,0.0,95,0.00,,,0.00,Wunderground v.1.15,2013-08-08 11:25:00,
2013-08-08 04:30:00,55.9,54.5,30.01,WNW,299,0.0,0.0,95,0.00,,,0.00,Wunderground v.1.15,2013-08-08 11:30:00,
2013-08-08 04:40:00,56.0,54.9,30.01,WNW,299,0.0,0.0,96,0.00,,,0.00,Wunderground v.1.15,2013-08-08 11:40:00,
2013-08-08 04:45:00,55.9,54.8,30.00,WNW,299,0.0,0.0,96,0.00,,,0.00,Wunderground v.1.15,2013-08-08 11:45:00,
2013-08-08 04:55:00,55.9,54.8,30.01,WNW,299,0.0,0.0,96,0.00,,,0.00,Wunderground v.1.15,2013-08-08 11:55:00,
2013-08-08 05:00:00,55.8,54.7,30.01,WNW,299,0.0,0.0,96,0.00,,,0.00,Wunderground v.1.15,2013-08-08 12:00:00,
2013-08-08 05:05:00,55.7,54.3,30.01,WNW,294,0.0,0.0,95,0.00,,,0.00,Wunderground v.1.15,2013-08-08 12:05:00,
2013-08-08 05:10:00,55.5,54.4,30.01,WNW,293,0.0,0.0,96,0.00,,,0.00,Wunderground v.1.15,2013-08-08 12:10:00,
2013-08-08 05:20:00,55.5,54.4,30.01,WNW,290,0.0,0.0,96,0.00,,,0.00,Wunderground v.1.15,2013-08-08 12:20:00,
2013-08-08 05:25:00,55.5,54.4,30.01,WNW,290,0.0,0.0,96,0.00,,,0.00,Wunderground v.1.15,2013-08-08 12:25:00,
2013-08-08 05:30:00,55.5,54.4,30.01,WNW,290,0.0,0.0,96,0.00,,,0.00,Wunderground v.1.15,2013-08-08 12:30:00,
2013-08-08 05:35:00,55.4,54.3,30.01,WNW,290,0.0,0.0,96,0.00,,,0.00,Wunderground v.1.15,2013-08-08 12:35:00,
2013-08-08 05:45:00,55.4,54.3,30.01,WNW,290,0.0,0.0,96,0.00,,,0.00,Wunderground v.1.15,2013-08-08 12:45:00,
2013-08-08 05:50:00,55.4,54.3,30.01,WNW,290,0.0,0.0,96,0.00,,,0.00,Wunderground v.1.15,2013-08-08 12:50:00,
2013-08-08 05:55:00,55.3,54.2,30.01,WNW,290,0.0,0.0,96,0.00,,,0.00,Wunderground v.1.15,2013-08-08 12:55:00,
2013-08-08 06:05:00,55.1,54.0,30.01,WNW,288,0.0,0.0,96,0.00,,,0.00,Wunderground v.1.15,2013-08-08 13:05:00,
2013-08-08 06:10:00,55.2,54.1,30.01,WNW,288,0.0,0.0,96,0.00,,,0.00,Wunderground v.1.15,2013-08-08 13:10:00,
2013-08-08 06:15:00,55.1,54.0,30.01,WNW,288,0.0,0.0,96,0.00,,,0.00,Wunderground v.1.15,2013-08-08 13:15:00,
2013-08-08 06:20:00,55.1,54.0,30.02,WNW,288,0.0,0.0,96,0.00,,,0.00,Wunderground v.1.15,2013-08-08 13:20:00,
2013-08-08 06:25:00,55.1,54.0,30.02,WNW,288,0.0,0.0,96,0.00,,,0.00,Wunderground v.1.15,2013-08-08 13:25:00,
2013-08-08 06:35:00,55.2,54.4,30.02,West,278,0.0,1.0,97,0.00,,,0.00,Wunderground v.1.15,2013-08-08 13:35:00,
2013-08-08 06:40:00,55.3,54.5,30.02,West,278,0.0,0.0,97,0.00,,,0.00,Wunderground v.1.15,2013-08-08 13:40:00,
2013-08-08 06:45:00,55.3,54.5,30.02,West,278,0.0,0.0,97,0.00,,,0.00,Wunderground v.1.15,2013-08-08 13:45:00,
2013-08-08 06:55:00,55.2,54.1,30.03,West,278,0.0,0.0,96,0.00,,,0.01,Wunderground v.1.15,2013-08-08 13:55:00,
2013-08-08 07:00:00,55.2,54.1,30.03,West,281,0.0,0.0,96,0.00,,,0.01,Wunderground v.1.15,2013-08-08 14:00:00,
2013-08-08 07:05:00,55.2,54.4,30.02,West,281,0.0,0.0,97,0.00,,,0.01,Wunderground v.1.15,2013-08-08 14:05:00,
2013-08-08 07:15:00,55.2,54.4,30.03,West,281,0.0,0.0,97,0.00,,,0.01,Wunderground v.1.15,2013-08-08 14:15:00,
2013-08-08 07:20:00,55.2,54.4,30.03,West,281,0.0,1.0,97,0.00,,,0.01,Wunderground v.1.15,2013-08-08 14:20:00,
2013-08-08 07:25:00,55.3,54.5,30.03,West,281,0.0,1.0,97,0.00,,,0.01,Wunderground v.1.15,2013-08-08 14:25:00,
2013-08-08 07:35:00,55.3,54.5,30.03,West,281,0.0,1.0,97,0.00,,,0.01,Wunderground v.1.15,2013-08-08 14:35:00,
2013-08-08 07:40:00,55.5,54.7,30.03,West,281,0.0,0.0,97,0.00,,,0.01,Wunderground v.1.15,2013-08-08 14:40:00,
2013-08-08 07:45:00,55.5,54.7,30.03,West,281,0.0,1.0,97,0.00,,,0.01,Wunderground v.1.15,2013-08-08 14:45:00,
2013-08-08 07:50:00,55.6,54.8,30.03,West,281,0.0,0.0,97,0.00,,,0.01,Wunderground v.1.15,2013-08-08 14:50:00,
2013-08-08 08:00:00,56.1,55.3,30.03,West,281,0.0,0.0,97,0.00,,,0.01,Wunderground v.1.15,2013-08-08 15:00:00,
2013-08-08 08:05:00,56.2,55.4,30.03,West,281,0.0,0.0,97,0.00,,,0.01,Wunderground v.1.15,2013-08-08 15:05:00,
2013-08-08 08:10:00,56.0,54.9,30.03,WNW,283,0.0,0.0,96,0.00,,,0.01,Wunderground v.1.15,2013-08-08 15:10:00,
2013-08-08 08:20:00,55.9,54.8,30.03,WNW,283,0.0,0.0,96,0.00,,,0.01,Wunderground v.1.15,2013-08-08 15:20:00,
2013-08-08 08:25:00,55.9,54.8,30.03,WNW,284,0.0,0.0,96,0.00,,,0.01,Wunderground v.1.15,2013-08-08 15:25:00,
2013-08-08 08:30:00,55.9,55.1,30.03,WNW,282,0.0,1.0,97,0.00,,,0.01,Wunderground v.1.15,2013-08-08 15:30:00,
2013-08-08 08:35:00,56.0,55.2,30.03,WNW,282,0.0,1.0,97,0.00,,,0.01,Wunderground v.1.15,2013-08-08 15:35:00,
2013-08-08 08:45:00,56.0,54.9,30.04,NW,304,0.0,0.0,96,0.00,,,0.01,Wunderground v.1.15,2013-08-08 15:45:00,
2013-08-08 08:55:00,56.0,54.9,30.04,NW,325,1.0,1.0,96,0.00,,,0.01,Wunderground v.1.15,2013-08-08 15:55:00,
2013-08-08 09:00:00,56.2,55.4,30.04,NW,325,0.0,0.0,97,0.00,,,0.01,Wunderground v.1.15,2013-08-08 16:00:00,
2013-08-08 09:05:00,56.1,55.0,30.04,NNW,338,0.0,3.0,96,0.00,,,0.01,Wunderground v.1.15,2013-08-08 16:05:00,
2013-08-08 09:10:00,56.1,55.0,30.04,NW,304,1.0,1.0,96,0.00,,,0.01,Wunderground v.1.15,2013-08-08 16:10:00,
2013-08-08 09:20:00,56.3,54.9,30.03,NW,325,1.0,3.0,95,0.00,,,0.01,Wunderground v.1.15,2013-08-08 16:20:00,
2013-08-08 09:25:00,56.5,55.1,30.03,West,275,1.0,3.0,95,0.00,,,0.01,Wunderground v.1.15,2013-08-08 16:25:00,
2013-08-08 09:30:00,56.8,55.4,30.03,WNW,285,1.0,1.0,95,0.00,,,0.01,Wunderground v.1.15,2013-08-08 16:30:00,
2013-08-08 09:35:00,57.2,55.8,30.03,NW,309,0.0,1.0,95,0.00,,,0.01,Wunderground v.1.15,2013-08-08 16:35:00,
2013-08-08 09:40:00,57.5,55.8,30.03,North,349,1.0,1.0,94,0.00,,,0.01,Wunderground v.1.15,2013-08-08 16:40:00,
2013-08-08 09:50:00,57.9,55.3,30.03,WNW,289,0.0,0.0,91,0.00,,,0.01,Wunderground v.1.15,2013-08-08 16:50:00,
2013-08-08 09:55:00,58.0,55.4,30.03,WNW,288,0.0,2.0,91,0.00,,,0.01,Wunderground v.1.15,2013-08-08 16:55:00,
2013-08-08 10:00:00,58.1,55.5,30.03,WNW,284,0.0,0.0,91,0.00,,,0.01,Wunderground v.1.15,2013-08-08 17:00:00,
2013-08-08 10:05:00,58.2,55.9,30.03,WNW,283,0.0,2.0,92,0.00,,,0.01,Wunderground v.1.15,2013-08-08 17:05:00,
2013-08-08 10:15:00,58.5,55.9,30.03,West,269,1.0,2.0,91,0.00,,,0.01,Wunderground v.1.15,2013-08-08 17:15:00,
2013-08-08 10:20:00,59.0,56.1,30.03,ESE,121,0.0,1.0,90,0.00,,,0.01,Wunderground v.1.15,2013-08-08 17:20:00,
2013-08-08 10:25:00,59.4,55.8,30.04,WSW,252,1.0,2.0,88,0.00,,,0.01,Wunderground v.1.15,2013-08-08 17:25:00,
2013-08-08 10:30:00,59.4,55.8,30.04,West,265,1.0,1.0,88,0.00,,,0.01,Wunderground v.1.15,2013-08-08 17:30:00,
2013-08-08 10:35:00,59.5,55.9,30.04,NW,319,1.0,1.0,88,0.00,,,0.01,Wunderground v.1.15,2013-08-08 17:35:00,
2013-08-08 10:45:00,60.2,56.3,30.04,WSW,253,1.0,1.0,87,0.00,,,0.01,Wunderground v.1.15,2013-08-08 17:45:00,
2013-08-08 10:50:00,60.5,56.3,30.04,West,259,1.0,3.0,86,0.00,,,0.02,Wunderground v.1.15,2013-08-08 17:50:00,
2013-08-08 10:55:00,60.8,56.6,30.03,ESE,118,0.0,3.0,86,0.00,,,0.02,Wunderground v.1.15,2013-08-08 17:55:00,
2013-08-08 11:00:00,61.0,56.1,30.04,East,93,0.0,0.0,84,0.00,,,0.02,Wunderground v.1.15,2013-08-08 18:00:00,
2013-08-08 11:05:00,61.1,56.6,30.04,WNW,285,1.0,1.0,85,0.00,,,0.02,Wunderground v.1.15,2013-08-08 18:05:00,
2013-08-08 11:15:00,61.2,56.0,30.04,WSW,251,1.0,3.0,83,0.00,,,0.02,Wunderground v.1.15,2013-08-08 18:15:00,
2013-08-08 11:20:00,61.8,56.6,30.04,SSE,161,1.0,1.0,83,0.00,,,0.02,Wunderground v.1.15,2013-08-08 18:20:00,
2013-08-08 11:25:00,62.4,56.5,30.03,SSE,155,1.0,1.0,81,0.00,,,0.02,Wunderground v.1.15,2013-08-08 18:25:00,
2013-08-08 11:30:00,62.8,56.5,30.03,NW,311,0.0,1.0,80,0.00,,,0.02,Wunderground v.1.15,2013-08-08 18:30:00,
2013-08-08 11:40:00,62.9,56.6,30.03,ESE,115,1.0,1.0,80,0.00,,,0.02,Wunderground v.1.15,2013-08-08 18:40:00,
2013-08-08 11:45:00,63.2,56.2,30.03,West,275,1.0,2.0,78,0.00,,,0.02,Wunderground v.1.15,2013-08-08 18:45:00,
2013-08-08 11:50:00,63.3,56.3,30.03,WSW,248,1.0,1.0,78,0.00,,,0.02,Wunderground v.1.15,2013-08-08 18:50:00,
2013-08-08 11:55:00,64.1,57.1,30.03,West,259,1.0,3.0,78,0.00,,,0.02,Wunderground v.1.15,2013-08-08 18:55:00,
2013-08-08 12:00:00,65.1,57.0,30.03,NW,305,1.0,1.0,75,0.00,,,0.02,Wunderground v.1.15,2013-08-08 19:00:00,
2013-08-08 12:05:00,65.4,57.3,30.03,WSW,246,1.0,3.0,75,0.00,,,0.02,Wunderground v.1.15,2013-08-08 19:05:00,
2013-08-08 12:15:00,65.2,57.1,30.03,WSW,244,1.0,1.0,75,0.00,,,0.02,Wunderground v.1.15,2013-08-08 19:15:00,
2013-08-08 12:25:00,66.2,57.7,30.02,WSW,247,1.0,1.0,74,0.00,,,0.02,Wunderground v.1.15,2013-08-08 19:25:00,
2013-08-08 12:30:00,67.0,57.3,30.02,WSW,250,1.0,1.0,71,0.00,,,0.02,Wunderground v.1.15,2013-08-08 19:30:00,
2013-08-08 12:40:00,67.4,57.3,30.02,WSW,256,1.0,1.0,70,0.00,,,0.02,Wunderground v.1.15,2013-08-08 19:40:00,
2013-08-08 12:45:00,67.1,57.8,30.02,West,267,2.0,4.0,72,0.00,,,0.02,Wunderground v.1.15,2013-08-08 19:45:00,
2013-08-08 12:50:00,67.1,57.4,30.01,WSW,250,2.0,2.0,71,0.00,,,0.02,Wunderground v.1.15,2013-08-08 19:50:00,
2013-08-08 12:55:00,67.4,57.7,30.01,ESE,115,1.0,2.0,71,0.00,,,0.02,Wunderground v.1.15,2013-08-08 19:55:00,
2013-08-08 13:05:00,68.8,58.2,30.01,WSW,243,1.0,1.0,69,0.00,,,0.02,Wunderground v.1.15,2013-08-08 20:05:00,
2013-08-08 13:10:00,69.0,58.0,30.01,WNW,290,1.0,1.0,68,0.00,,,0.02,Wunderground v.1.15,2013-08-08 20:10:00,
2013-08-08 13:15:00,69.1,58.1,30.01,West,262,1.0,1.0,68,0.00,,,0.02,Wunderground v.1.15,2013-08-08 20:15:00,
2013-08-08 13:20:00,69.4,58.0,30.01,WSW,252,1.0,1.0,67,0.00,,,0.02,Wunderground v.1.15,2013-08-08 20:20:00,
2013-08-08 13:30:00,70.3,58.0,30.01,West,277,1.0,1.0,65,0.00,,,0.02,Wunderground v.1.15,2013-08-08 20:30:00,
2013-08-08 13:35:00,70.4,57.6,30.01,WSW,237,1.0,3.0,64,0.00,,,0.02,Wunderground v.1.15,2013-08-08 20:35:00,
2013-08-08 13:40:00,70.6,57.8,30.01,WSW,246,1.0,1.0,64,0.00,,,0.02,Wunderground v.1.15,2013-08-08 20:40:00,
2013-08-08 13:45:00,71.3,57.6,30.01,West,271,1.0,1.0,62,0.00,,,0.02,Wunderground v.1.15,2013-08-08 20:45:00,
2013-08-08 13:50:00,71.3,57.6,30.00,West,267,1.0,1.0,62,0.00,,,0.02,Wunderground v.1.15,2013-08-08 20:50:00,
2013-08-08 13:55:00,71.6,57.4,30.00,West,281,2.0,2.0,61,0.00,,,0.02,Wunderground v.1.15,2013-08-08 20:55:00,
2013-08-08 14:05:00,71.0,56.9,30.00,WNW,294,2.0,2.0,61,0.00,,,0.02,Wunderground v.1.15,2013-08-08 21:05:00,
2013-08-08 14:10:00,71.1,57.0,30.00,WSW,254,2.0,2.0,61,0.00,,,0.02,Wunderground v.1.15,2013-08-08 21:10:00,
2013-08-08 14:15:00,71.6,57.4,30.00,ESE,116,1.0,2.0,61,0.00,,,0.02,Wunderground v.1.15,2013-08-08 21:15:00,
2013-08-08 14:35:00,72.4,57.3,30.00,SSE,155,1.0,2.0,59,0.00,,,0.02,Wunderground v.1.15,2013-08-08 21:35:00,
2013-08-08 14:40:00,72.0,56.9,30.00,WSW,249,2.0,2.0,59,0.00,,,0.02,Wunderground v.1.15,2013-08-08 21:40:00,
2013-08-08 14:50:00,71.8,56.7,30.00,SSW,210,2.0,2.0,59,0.00,,,0.02,Wunderground v.1.15,2013-08-08 21:50:00,
2013-08-08 14:55:00,72.1,56.5,30.00,WNW,294,1.0,2.0,58,0.00,,,0.02,Wunderground v.1.15,2013-08-08 21:55:00,
2013-08-08 15:00:00,72.5,56.9,30.00,South,190,1.0,1.0,58,0.00,,,0.02,Wunderground v.1.15,2013-08-08 22:00:00,
2013-08-08 15:05:00,72.8,56.7,29.99,ESE,118,1.0,1.0,57,0.00,,,0.02,Wunderground v.1.15,2013-08-08 22:05:00,
2013-08-08 15:10:00,72.6,56.5,29.99,West,263,1.0,1.0,57,0.00,,,0.02,Wunderground v.1.15,2013-08-08 22:10:00,
2013-08-08 15:15:00,73.4,56.7,29.99,SE,132,1.0,1.0,56,0.00,,,0.02,Wunderground v.1.15,2013-08-08 22:15:00,
2013-08-08 15:20:00,73.6,56.4,29.99,WSW,252,1.0,1.0,55,0.00,,,0.02,Wunderground v.1.15,2013-08-08 22:20:00,
2013-08-08 15:30:00,73.9,56.2,29.98,SW,223,1.0,1.0,54,0.00,,,0.02,Wunderground v.1.15,2013-08-08 22:30:00,
2013-08-08 15:35:00,73.7,56.5,29.98,West,262,1.0,1.0,55,0.00,,,0.02,Wunderground v.1.15,2013-08-08 22:35:00,
2013-08-08 15:45:00,72.9,56.8,29.98,East,99,1.0,4.0,57,0.00,,,0.02,Wunderground v.1.15,2013-08-08 22:45:00,
2013-08-08 15:50:00,72.7,56.6,29.98,WSW,239,1.0,1.0,57,0.00,,,0.02,Wunderground v.1.15,2013-08-08 22:50:00,
2013-08-08 15:55:00,72.8,56.2,29.98,WSW,248,1.0,6.0,56,0.00,,,0.02,Wunderground v.1.15,2013-08-08 22:55:00,
2013-08-08 16:00:00,72.6,56.0,29.98,WSW,255,1.0,1.0,56,0.00,,,0.02,Wunderground v.1.15,2013-08-08 23:00:00,
2013-08-08 16:05:00,72.6,56.0,29.98,West,270,1.0,1.0,56,0.00,,,0.02,Wunderground v.1.15,2013-08-08 23:05:00,
2013-08-08 16:15:00,72.1,55.5,29.97,NW,310,1.0,2.0,56,0.00,,,0.02,Wunderground v.1.15,2013-08-08 23:15:00,
2013-08-08 16:20:00,72.0,55.4,29.97,SSE,148,1.0,1.0,56,0.00,,,0.02,Wunderground v.1.15,2013-08-08 23:20:00,
2013-08-08 16:25:00,71.3,54.8,29.97,West,266,1.0,2.0,56,0.00,,,0.02,Wunderground v.1.15,2013-08-08 23:25:00,
2013-08-08 16:40:00,70.2,54.7,29.97,WSW,258,2.0,2.0,58,0.00,,,0.02,Wunderground v.1.15,2013-08-08 23:40:00,
2013-08-08 16:45:00,69.6,54.6,29.97,West,269,1.0,2.0,59,0.00,,,0.02,Wunderground v.1.15,2013-08-08 23:45:00,
2013-08-08 16:55:00,69.2,54.7,29.97,West,265,2.0,2.0,60,0.00,,,0.02,Wunderground v.1.15,2013-08-08 23:55:00,
2013-08-08 17:00:00,69.2,54.7,29.97,West,267,2.0,2.0,60,0.00,,,0.02,Wunderground v.1.15,2013-08-09 00:00:00,
2013-08-08 17:05:00,69.0,54.5,29.97,WSW,245,1.0,2.0,60,0.00,,,0.02,Wunderground v.1.15,2013-08-09 00:05:00,
2013-08-08 17:10:00,68.7,54.3,29.97,WSW,250,1.0,3.0,60,0.00,,,0.02,Wunderground v.1.15,2013-08-09 00:10:00,
2013-08-08 17:20:00,68.1,54.1,29.97,WSW,256,2.0,2.0,61,0.00,,,0.02,Wunderground v.1.15,2013-08-09 00:20:00,
2013-08-08 17:25:00,67.9,54.0,29.97,WNW,288,2.0,2.0,61,0.00,,,0.02,Wunderground v.1.15,2013-08-09 00:25:00,
2013-08-08 17:30:00,67.0,53.5,29.97,WSW,249,2.0,2.0,62,0.00,,,0.02,Wunderground v.1.15,2013-08-09 00:30:00,
2013-08-08 17:40:00,66.3,53.8,29.96,West,263,1.0,3.0,64,0.00,,,0.02,Wunderground v.1.15,2013-08-09 00:40:00,
2013-08-08 17:45:00,66.1,53.6,29.96,WSW,253,1.0,3.0,64,0.00,,,0.02,Wunderground v.1.15,2013-08-09 00:45:00,
2013-08-08 17:55:00,65.8,53.3,29.96,West,273,1.0,2.0,64,0.00,,,0.02,Wunderground v.1.15,2013-08-09 00:55:00,
2013-08-08 18:05:00,65.2,53.1,29.96,West,267,2.0,3.0,65,0.00,,,0.02,Wunderground v.1.15,2013-08-09 01:05:00,
2013-08-08 18:10:00,64.7,53.1,29.96,WNW,295,2.0,2.0,66,0.00,,,0.02,Wunderground v.1.15,2013-08-09 01:10:00,
2013-08-08 18:15:00,64.5,52.9,29.95,West,265,1.0,2.0,66,0.00,,,0.02,Wunderground v.1.15,2013-08-09 01:15:00,
2013-08-08 18:20:00,64.1,52.9,29.95,WSW,250,1.0,3.0,67,0.00,,,0.02,Wunderground v.1.15,2013-08-09 01:20:00,
2013-08-08 18:25:00,63.8,52.6,29.95,WSW,257,2.0,3.0,67,0.00,,,0.02,Wunderground v.1.15,2013-08-09 01:25:00,
2013-08-08 18:35:00,63.6,52.8,29.95,WNW,288,1.0,1.0,68,0.00,,,0.02,Wunderground v.1.15,2013-08-09 01:35:00,
2013-08-08 18:40:00,63.3,53.0,29.95,WNW,286,1.0,1.0,69,0.00,,,0.02,Wunderground v.1.15,2013-08-09 01:40:00,
2013-08-08 18:45:00,63.1,52.8,29.95,WSW,242,1.0,1.0,69,0.00,,,0.02,Wunderground v.1.15,2013-08-09 01:45:00,
2013-08-08 18:55:00,62.5,52.6,29.95,WSW,251,1.0,1.0,70,0.00,,,0.02,Wunderground v.1.15,2013-08-09 01:55:00,
2013-08-08 19:05:00,61.8,52.7,29.95,West,263,1.0,3.0,72,0.00,,,0.02,Wunderground v.1.15,2013-08-09 02:05:00,
2013-08-08 19:10:00,61.2,52.5,29.95,WNW,286,0.0,0.0,73,0.00,,,0.02,Wunderground v.1.15,2013-08-09 02:10:00,
2013-08-08 19:20:00,60.5,52.5,29.95,WNW,284,0.0,0.0,75,0.00,,,0.02,Wunderground v.1.15,2013-08-09 02:20:00,
2013-08-08 19:35:00,59.5,52.6,29.95,WSW,252,0.0,0.0,78,0.00,,,0.02,Wunderground v.1.15,2013-08-09 02:35:00,
2013-08-08 19:40:00,59.2,52.3,29.95,WSW,253,0.0,0.0,78,0.00,,,0.02,Wunderground v.1.15,2013-08-09 02:40:00,
2013-08-08 19:45:00,58.9,52.4,29.95,West,266,0.0,0.0,79,0.00,,,0.02,Wunderground v.1.15,2013-08-09 02:45:00,
2013-08-08 19:50:00,58.5,52.4,29.95,West,261,1.0,1.0,80,0.00,,,0.02,Wunderground v.1.15,2013-08-09 02:50:00,
2013-08-08 19:55:00,58.0,52.2,29.95,WSW,239,1.0,1.0,81,0.00,,,0.02,Wunderground v.1.15,2013-08-09 02:55:00,
2013-08-08 20:05:00,57.4,52.3,29.96,WNW,286,0.0,1.0,83,0.00,,,0.02,Wunderground v.1.15,2013-08-09 03:05:00,
2013-08-08 20:10:00,57.1,52.3,29.96,West,259,0.0,1.0,84,0.00,,,0.02,Wunderground v.1.15,2013-08-09 03:10:00,
2013-08-08 20:20:00,56.7,52.2,29.96,WSW,257,0.0,0.0,85,0.00,,,0.02,Wunderground v.1.15,2013-08-09 03:20:00,
2013-08-08 20:25:00,56.5,52.0,29.96,West,259,1.0,1.0,85,0.00,,,0.02,Wunderground v.1.15,2013-08-09 03:25:00,
2013-08-08 20:30:00,56.3,51.8,29.96,WNW,294,1.0,1.0,85,0.00,,,0.02,Wunderground v.1.15,2013-08-09 03:30:00,
2013-08-08 20:40:00,55.8,51.7,29.96,SSE,152,1.0,1.0,86,0.00,,,0.02,Wunderground v.1.15,2013-08-09 03:40:00,
2013-08-08 20:45:00,55.5,51.7,29.97,West,259,1.0,1.0,87,0.00,,,0.02,Wunderground v.1.15,2013-08-09 03:45:00,
2013-08-08 20:55:00,55.0,51.5,29.97,SW,232,1.0,1.0,88,0.00,,,0.02,Wunderground v.1.15,2013-08-09 03:55:00,
2013-08-08 21:00:00,54.8,51.6,29.97,SW,230,1.0,1.0,89,0.00,,,0.02,Wunderground v.1.15,2013-08-09 04:00:00,
2013-08-08 21:05:00,54.6,51.4,29.97,West,275,0.0,1.0,89,0.00,,,0.02,Wunderground v.1.15,2013-08-09 04:05:00,
2013-08-08 21:10:00,54.5,51.6,29.97,WSW,246,0.0,0.0,90,0.00,,,0.02,Wunderground v.1.15,2013-08-09 04:10:00,
2013-08-08 21:15:00,54.4,51.5,29.98,West,261,1.0,2.0,90,0.00,,,0.02,Wunderground v.1.15,2013-08-09 04:15:00,
2013-08-08 21:20:00,54.3,51.4,29.98,WSW,241,1.0,1.0,90,0.00,,,0.02,Wunderground v.1.15,2013-08-09 04:20:00,
2013-08-08 21:25:00,54.3,51.7,29.98,WSW,241,0.0,1.0,91,0.00,,,0.02,Wunderground v.1.15,2013-08-09 04:25:00,
2013-08-08 21:30:00,54.4,51.8,29.98,WSW,252,1.0,2.0,91,0.00,,,0.02,Wunderground v.1.15,2013-08-09 04:30:00,
2013-08-08 21:35:00,54.4,51.8,29.98,SW,227,1.0,2.0,91,0.00,,,0.02,Wunderground v.1.15,2013-08-09 04:35:00,
2013-08-08 21:40:00,54.4,51.8,29.99,WSW,257,0.0,0.0,91,0.00,,,0.02,Wunderground v.1.15,2013-08-09 04:40:00,
2013-08-08 21:45:00,54.4,51.8,29.99,West,259,0.0,0.0,91,0.00,,,0.02,Wunderground v.1.15,2013-08-09 04:45:00,
2013-08-08 21:55:00,54.2,51.6,29.98,West,277,0.0,0.0,91,0.00,,,0.02,Wunderground v.1.15,2013-08-09 04:55:00,
2013-08-08 22:00:00,54.1,51.5,29.98,SE,140,0.0,0.0,91,0.00,,,0.02,Wunderground v.1.15,2013-08-09 05:00:00,
2013-08-08 22:05:00,54.0,51.4,29.98,East,101,0.0,0.0,91,0.00,,,0.02,Wunderground v.1.15,2013-08-09 05:05:00,
2013-08-08 22:15:00,53.8,51.2,29.98,ESE,106,0.0,0.0,91,0.00,,,0.02,Wunderground v.1.15,2013-08-09 05:15:00,
2013-08-08 22:20:00,53.7,51.4,29.98,ESE,109,0.0,0.0,92,0.00,,,0.02,Wunderground v.1.15,2013-08-09 05:20:00,
2013-08-08 22:25:00,53.6,51.3,29.98,SE,136,0.0,1.0,92,0.00,,,0.02,Wunderground v.1.15,2013-08-09 05:25:00,
2013-08-08 22:30:00,53.6,51.3,29.98,SE,130,0.0,0.0,92,0.00,,,0.02,Wunderground v.1.15,2013-08-09 05:30:00,
2013-08-08 22:40:00,53.5,51.2,29.98,SE,126,0.0,0.0,92,0.00,,,0.02,Wunderground v.1.15,2013-08-09 05:40:00,
2013-08-08 22:45:00,53.5,51.2,29.98,SE,127,0.0,0.0,92,0.00,,,0.02,Wunderground v.1.15,2013-08-09 05:45:00,
2013-08-08 22:50:00,53.4,51.1,29.98,SE,128,0.0,0.0,92,0.00,,,0.02,Wunderground v.1.15,2013-08-09 05:50:00,
2013-08-08 22:55:00,53.4,51.4,29.98,NNE,19,0.0,2.0,93,0.00,,,0.02,Wunderground v.1.15,2013-08-09 05:55:00,
2013-08-08 23:05:00,53.3,51.3,29.98,ESE,111,0.0,0.0,93,0.00,,,0.02,Wunderground v.1.15,2013-08-09 06:05:00,
2013-08-08 23:10:00,53.2,51.2,29.98,ESE,117,0.0,0.0,93,0.00,,,0.02,Wunderground v.1.15,2013-08-09 06:10:00,
2013-08-08 23:15:00,53.1,51.1,29.98,West,259,1.0,2.0,93,0.00,,,0.02,Wunderground v.1.15,2013-08-09 06:15:00,
2013-08-08 23:20:00,53.0,51.3,29.98,SW,219,1.0,1.0,94,0.00,,,0.02,Wunderground v.1.15,2013-08-09 06:20:00,
2013-08-08 23:25:00,53.0,51.3,29.98,SE,144,1.0,1.0,94,0.00,,,0.02,Wunderground v.1.15,2013-08-09 06:25:00,
2013-08-08 23:30:00,53.0,51.3,29.98,SSE,157,0.0,0.0,94,0.00,,,0.02,Wunderground v.1.15,2013-08-09 06:30:00,
2013-08-08 23:35:00,53.1,51.4,29.98,WSW,242,0.0,0.0,94,0.00,,,0.02,Wunderground v.1.15,2013-08-09 06:35:00,
2013-08-08 23:45:00,53.1,51.4,29.98,West,266,1.0,3.0,94,0.00,,,0.02,Wunderground v.1.15,2013-08-09 06:45:00,
2013-08-08 23:50:00,53.1,51.4,29.98,SW,236,1.0,1.0,94,0.00,,,0.02,Wunderground v.1.15,2013-08-09 06:50:00,